London Airport
CYXU : rendu visible

Aérodrome :











RETROUVEZ-NOUS SUR...

 
LOGIN :

S'inscrire | Disclaimer

   EN    FR    IT 

 









Légende :    VFR   VFR Marginal   IFR   IFR Intensif   IFR Très Intensif
Visi : 
Plafond : 
>= 8 km
>= 3000ft
5 à 8 km
1000 à 3000 ft
1500m à 5 km
500 à 1000 ft
800 à 1500m
200 à 500 ft
< 800m
< 200 ft
Symboles :   Orages  Brouillard  Fortes neiges  Fortes précipitations  Vent > 20 kt






- Altitude de l'aérodrome : 912 ft
- Code IATA : YXU


CYXU - London

DERNIER METAR :
  • 250500Z 09007KT 6SM -SN SCT004 OVC065 00/00 A3008 RMK SF4SC4 SLP198

METARs EXPIRÉS :
  • 250400Z 10012KT 3SM -SN BKN003 OVC012 00/M00 A3008 RMK SF6NS2 PRESFR SLP197
  • 250300Z 11011KT 6SM -SN BKN004 OVC010 M00/M01 A3012 RMK SF5NS3 SLP214

TAF TAF CYXU
Valide du 25 à 06h jusqu'au 26 à 06h UTC


250540Z 2506/2606 10008KT 6SM -SN SCT004 OVC060
TEMPO 2506/2508 1SM -SHRA -PL BR BKN004
FM250800 16008KT P6SM BKN050 OVC080
TEMPO 2508/2515 5SM -SHRA BR
FM251500 22012G22KT 5SM -SHRA BR BKN007 OVC010
PROB30 2518/2521 BKN005
FM252100 18008G18KT 1SM -RA BR OVC004
FM260000 15010KT 1/2SM -SHRA FG VV002
FM260300 15008KT 3/8SM -DZ FG VV002 RMK NXT FCST BY 251200Z
FIR CZYZ / Amérique du Nord



MET'MAP, la Météo Aéronautique d'un coup d'oeil ! - Copyright ORBIFLY Décembre 2007 - Disclaimer

ORBIFLY MET'MAP TEAM :

Programmation & Développement : Alexandra Zaïnal
Sur une idée originale de : Baudouin d'Aumeries
Assistance à la programmation : Marc-Olivier Méhu
Soutien technique & logistique : Manuel Goepfert

Contact : metmap@orbifly.com




SOURCES & CREDITS :

   NOAA       Earth
Advisory